Historique des mesures à Cassis (13260), France
Quotidien Résumé Fevrier 9, 2018 Unités:  Métrique    US   Métrique/US
« Précédent (Jour)
Suivant (Jour) »
Quotidien Hebdomadaire Mensuel Annuel Période au choix
  Maximum: Minimum: Moyenne:
Température: -17.8 °C -16.4 °C -14.9 °C
Point de rosée: -17.8 °C -18.8 °C -18.1 °C
Humidité: Humidity % 56 % 64 %
Vitesse du vent: 0 km/h 0 km/h 6.4 km/h
Rafales: 0 km/h - -
Vent:- - SW
Pression: 0 hPa 34188.4 hPa -
Précipitations: 0 mm    
Historical Graphs
 
 
Mesures pour : Fevrier 9, 2018
Heure Temperature Point de rosée Pression Vent Vitesse du vent Rafales Humidité Pluie (par heure) Conditions
-17.8 °C -17.8 °C 0 hPa Calm     Humidity % 0 mm SoftwareType W/m2
00:12 -15.8 °C -18.7 °C 34347.6 hPa Calm     69 % 0 mm open2300-1.11 W/m2
01:12 -16 °C -18.7 °C 34347.6 hPa Calm     71 % 0 mm open2300-1.11 W/m2
02:12 -16.1 °C -18.6 °C 34337.4 hPa Calm     73 % 0 mm open2300-1.11 W/m2
03:12 -16.2 °C -18.6 °C 34337.4 hPa Calm   4.7 km/h 74 % 0 mm open2300-1.11 W/m2
04:12 -16.4 °C -18.8 °C 34313.7 hPa North 9.8 km/h 15 km/h 74 % 0 mm open2300-1.11 W/m2
05:12 -16.4 °C -18.8 °C 34313.7 hPa North 10.9 km/h 10.9 km/h 74 % 0 mm open2300-1.11 W/m2
06:12 -16.4 °C -18.8 °C 34313.7 hPa NW 2.3 km/h 3.4 km/h 74 % 0 mm open2300-1.11 W/m2
07:12 -16.3 °C -18.8 °C 34313.7 hPa Calm     72 % 0 mm open2300-1.11 W/m2
08:12 -16.2 °C -18.8 °C 34313.7 hPa Calm   4.2 km/h 71 % 0 mm open2300-1.11 W/m2
09:12 -15.1 °C -18.3 °C 34313.7 hPa Calm     66 % 0 mm open2300-1.11 W/m2
10:12 -14.6 °C -17.8 °C 34303.6 hPa NNW 6.4 km/h 6.4 km/h 66 % 0 mm open2300-1.11 W/m2
11:12 -13.4 °C -17.1 °C 34293.4 hPa ESE 12.2 km/h 12.2 km/h 63 % 0 mm open2300-1.11 W/m2
12:12 -12.8 °C -17.1 °C 34293.4 hPa ESE 9.8 km/h 9.8 km/h 59 % 0 mm open2300-1.11 W/m2
13:12 -12.7 °C -17.3 °C 34269.7 hPa West 4.7 km/h 4.7 km/h 56 % 0 mm open2300-1.11 W/m2
14:12 -12.9 °C -17.2 °C 34235.8 hPa Calm   8.9 km/h 58 % 0 mm open2300-1.11 W/m2
15:12 -12.8 °C -17.2 °C 34212.1 hPa NW 23.8 km/h 25.4 km/h 58 % 0 mm open2300-1.11 W/m2
16:12 -13.3 °C -17.4 °C 34198.6 hPa NW 27.2 km/h 27.2 km/h 59 % 0 mm open2300-1.11 W/m2
17:12 -13.7 °C -17.6 °C 34198.6 hPa NNW 16.9 km/h 23.8 km/h 61 % 0 mm open2300-1.11 W/m2
18:12 -14.4 °C -18 °C 34198.6 hPa NW 4.2 km/h 16.9 km/h 63 % 0 mm open2300-1.11 W/m2
19:12 -14.6 °C -18.1 °C 34198.6 hPa WNW 11.6 km/h 16.3 km/h 64 % 0 mm open2300-1.11 W/m2
20:12 -14.8 °C -18.2 °C 34212.1 hPa WNW 16.9 km/h 16.9 km/h 65 % 0 mm open2300-1.11 W/m2
21:12 -15 °C -18.2 °C 34212.1 hPa Calm     66 % 0 mm open2300-1.11 W/m2
22:12 -14.9 °C -18.1 °C 34198.6 hPa Calm   1.8 km/h 67 % 0 mm open2300-1.11 W/m2
23:12 -14.6 °C -17.9 °C 34188.4 hPa North 3.4 km/h 3.4 km/h 65 % 0 mm open2300-1.11 W/m2
Observations météo à CASSIS
WU-History script by Weather Underground - 1 mb